sensor_id;sensor_type;location;lat;lon;timestamp;temperature;humidity
43647;DHT22;56152;49.996;18.980;2023-02-28T00:00:15;-1.50;88.70
43647;DHT22;56152;49.996;18.980;2023-02-28T00:05:19;-1.60;88.90
43647;DHT22;56152;49.996;18.980;2023-02-28T00:10:28;-1.60;89.10
43647;DHT22;56152;49.996;18.980;2023-02-28T00:15:33;-1.70;89.20
43647;DHT22;56152;49.996;18.980;2023-02-28T00:20:35;-1.70;89.50
43647;DHT22;56152;49.996;18.980;2023-02-28T00:25:41;-1.80;89.70
43647;DHT22;56152;49.996;18.980;2023-02-28T00:30:44;-1.80;89.80
43647;DHT22;56152;49.996;18.980;2023-02-28T00:35:49;-1.90;90.00
43647;DHT22;56152;49.996;18.980;2023-02-28T00:40:56;-1.90;90.10
43647;DHT22;56152;49.996;18.980;2023-02-28T00:45:59;-1.80;90.00
43647;DHT22;56152;49.996;18.980;2023-02-28T00:51:01;-1.80;90.00
43647;DHT22;56152;49.996;18.980;2023-02-28T00:56:11;-1.70;90.00
43647;DHT22;56152;49.996;18.980;2023-02-28T01:01:14;-1.70;90.00
43647;DHT22;56152;49.996;18.980;2023-02-28T01:06:17;-1.70;90.00
43647;DHT22;56152;49.996;18.980;2023-02-28T01:11:21;-1.70;90.30
43647;DHT22;56152;49.996;18.980;2023-02-28T01:16:27;-1.70;90.00
43647;DHT22;56152;49.996;18.980;2023-02-28T01:21:31;-1.80;90.00
43647;DHT22;56152;49.996;18.980;2023-02-28T01:26:37;-1.90;90.10
43647;DHT22;56152;49.996;18.980;2023-02-28T01:31:41;-1.90;90.10
43647;DHT22;56152;49.996;18.980;2023-02-28T01:36:44;-2.00;90.20
43647;DHT22;56152;49.996;18.980;2023-02-28T01:41:53;-2.00;90.20
43647;DHT22;56152;49.996;18.980;2023-02-28T01:46:56;-2.10;90.30
43647;DHT22;56152;49.996;18.980;2023-02-28T01:52:00;-2.20;90.40
43647;DHT22;56152;49.996;18.980;2023-02-28T01:57:19;-2.30;90.50
43647;DHT22;56152;49.996;18.980;2023-02-28T02:02:25;-2.30;90.50
43647;DHT22;56152;49.996;18.980;2023-02-28T02:07:33;-2.30;90.50
43647;DHT22;56152;49.996;18.980;2023-02-28T02:13:00;-2.40;90.50
43647;DHT22;56152;49.996;18.980;2023-02-28T02:18:14;-2.40;90.60
43647;DHT22;56152;49.996;18.980;2023-02-28T02:29:36;-2.60;90.70
43647;DHT22;56152;49.996;18.980;2023-02-28T02:34:54;-2.60;90.70
43647;DHT22;56152;49.996;18.980;2023-02-28T02:40:04;-2.70;90.80
43647;DHT22;56152;49.996;18.980;2023-02-28T02:45:11;-2.60;90.90
43647;DHT22;56152;49.996;18.980;2023-02-28T02:50:22;-2.60;90.80
43647;DHT22;56152;49.996;18.980;2023-02-28T02:55:26;-2.60;90.80
43647;DHT22;56152;49.996;18.980;2023-02-28T03:00:31;-2.60;91.10
43647;DHT22;56152;49.996;18.980;2023-02-28T03:05:42;-2.60;90.80
43647;DHT22;56152;49.996;18.980;2023-02-28T03:10:49;-2.60;90.80
43647;DHT22;56152;49.996;18.980;2023-02-28T03:16:21;-2.60;90.90
43647;DHT22;56152;49.996;18.980;2023-02-28T03:21:36;-2.60;90.80
43647;DHT22;56152;49.996;18.980;2023-02-28T03:26:43;-2.70;90.70
43647;DHT22;56152;49.996;18.980;2023-02-28T03:31:50;-2.70;90.80
43647;DHT22;56152;49.996;18.980;2023-02-28T03:36:59;-2.80;90.80
43647;DHT22;56152;49.996;18.980;2023-02-28T03:42:07;-2.90;90.90
43647;DHT22;56152;49.996;18.980;2023-02-28T03:47:16;-3.00;90.90
43647;DHT22;56152;49.996;18.980;2023-02-28T03:52:27;-3.10;91.00
43647;DHT22;56152;49.996;18.980;2023-02-28T03:57:37;-3.10;91.10
43647;DHT22;56152;49.996;18.980;2023-02-28T04:02:45;-3.20;91.10
43647;DHT22;56152;49.996;18.980;2023-02-28T04:08:03;-3.20;91.10
43647;DHT22;56152;49.996;18.980;2023-02-28T04:13:07;-3.30;91.20
43647;DHT22;56152;49.996;18.980;2023-02-28T04:18:09;-3.40;91.20
43647;DHT22;56152;49.996;18.980;2023-02-28T04:23:14;-3.40;91.30
43647;DHT22;56152;49.996;18.980;2023-02-28T04:28:16;-3.50;91.30
43647;DHT22;56152;49.996;18.980;2023-02-28T04:33:18;-3.50;91.40
43647;DHT22;56152;49.996;18.980;2023-02-28T04:38:23;-3.60;91.40
43647;DHT22;56152;49.996;18.980;2023-02-28T04:43:26;-3.70;91.50
43647;DHT22;56152;49.996;18.980;2023-02-28T04:48:33;-3.70;91.50
43647;DHT22;56152;49.996;18.980;2023-02-28T04:53:39;-3.70;91.50
43647;DHT22;56152;49.996;18.980;2023-02-28T04:58:46;-3.80;91.50
43647;DHT22;56152;49.996;18.980;2023-02-28T05:03:49;-3.80;91.60
43647;DHT22;56152;49.996;18.980;2023-02-28T05:08:54;-3.90;91.60
43647;DHT22;56152;49.996;18.980;2023-02-28T05:13:56;-3.90;91.60
43647;DHT22;56152;49.996;18.980;2023-02-28T05:18:59;-3.90;91.60
43647;DHT22;56152;49.996;18.980;2023-02-28T05:24:09;-3.90;91.60
43647;DHT22;56152;49.996;18.980;2023-02-28T05:29:11;-3.90;91.60
43647;DHT22;56152;49.996;18.980;2023-02-28T05:34:14;-3.90;91.60
43647;DHT22;56152;49.996;18.980;2023-02-28T05:39:19;-3.90;91.70
43647;DHT22;56152;49.996;18.980;2023-02-28T05:44:21;-3.80;91.60
43647;DHT22;56152;49.996;18.980;2023-02-28T05:49:24;-3.80;91.60
43647;DHT22;56152;49.996;18.980;2023-02-28T05:54:29;-3.70;91.60
43647;DHT22;56152;49.996;18.980;2023-02-28T05:59:31;-3.70;91.50
43647;DHT22;56152;49.996;18.980;2023-02-28T06:04:36;-3.70;91.50
43647;DHT22;56152;49.996;18.980;2023-02-28T06:09:44;-3.70;91.50
43647;DHT22;56152;49.996;18.980;2023-02-28T06:14:47;-3.60;91.60
43647;DHT22;56152;49.996;18.980;2023-02-28T06:19:50;-3.60;91.60
43647;DHT22;56152;49.996;18.980;2023-02-28T06:24:55;-3.50;91.50
43647;DHT22;56152;49.996;18.980;2023-02-28T06:30:03;-3.40;91.50
43647;DHT22;56152;49.996;18.980;2023-02-28T06:35:06;-3.40;91.50
43647;DHT22;56152;49.996;18.980;2023-02-28T06:40:11;-3.30;91.50
43647;DHT22;56152;49.996;18.980;2023-02-28T06:45:15;-3.20;91.40
43647;DHT22;56152;49.996;18.980;2023-02-28T06:50:17;-3.10;91.50
43647;DHT22;56152;49.996;18.980;2023-02-28T06:55:23;-3.00;91.40
43647;DHT22;56152;49.996;18.980;2023-02-28T07:00:27;-2.90;91.40
43647;DHT22;56152;49.996;18.980;2023-02-28T07:05:31;-2.90;91.30
43647;DHT22;56152;49.996;18.980;2023-02-28T07:10:37;-2.80;91.30
43647;DHT22;56152;49.996;18.980;2023-02-28T07:15:39;-2.70;91.20
43647;DHT22;56152;49.996;18.980;2023-02-28T07:20:43;-2.70;91.20
43647;DHT22;56152;49.996;18.980;2023-02-28T07:25:48;-2.60;91.10
43647;DHT22;56152;49.996;18.980;2023-02-28T07:30:51;-2.50;91.10
43647;DHT22;56152;49.996;18.980;2023-02-28T07:36:00;-2.40;91.10
43647;DHT22;56152;49.996;18.980;2023-02-28T07:41:08;-2.30;91.00
43647;DHT22;56152;49.996;18.980;2023-02-28T07:46:12;-2.20;90.90
43647;DHT22;56152;49.996;18.980;2023-02-28T07:51:16;-2.00;90.80
43647;DHT22;56152;49.996;18.980;2023-02-28T07:56:20;-1.80;90.70
43647;DHT22;56152;49.996;18.980;2023-02-28T08:01:22;-1.60;90.60
43647;DHT22;56152;49.996;18.980;2023-02-28T08:06:26;-1.20;90.40
43647;DHT22;56152;49.996;18.980;2023-02-28T08:11:34;-0.70;90.10
43647;DHT22;56152;49.996;18.980;2023-02-28T08:16:37;-0.30;89.40
43647;DHT22;56152;49.996;18.980;2023-02-28T08:21:39;0.20;88.90
43647;DHT22;56152;49.996;18.980;2023-02-28T08:26:47;0.60;87.50
43647;DHT22;56152;49.996;18.980;2023-02-28T08:31:49;1.00;87.00
43647;DHT22;56152;49.996;18.980;2023-02-28T08:36:51;1.30;85.60
43647;DHT22;56152;49.996;18.980;2023-02-28T08:41:56;1.70;85.30
43647;DHT22;56152;49.996;18.980;2023-02-28T08:47:01;1.80;84.30
43647;DHT22;56152;49.996;18.980;2023-02-28T08:52:04;1.70;84.50
43647;DHT22;56152;49.996;18.980;2023-02-28T08:57:09;2.30;84.80
43647;DHT22;56152;49.996;18.980;2023-02-28T09:02:13;2.70;82.60
43647;DHT22;56152;49.996;18.980;2023-02-28T09:07:15;3.10;80.40
43647;DHT22;56152;49.996;18.980;2023-02-28T09:12:20;3.40;79.40
43647;DHT22;56152;49.996;18.980;2023-02-28T09:17:22;3.80;78.80
43647;DHT22;56152;49.996;18.980;2023-02-28T09:22:24;3.90;76.60
43647;DHT22;56152;49.996;18.980;2023-02-28T09:27:29;3.80;77.00
43647;DHT22;56152;49.996;18.980;2023-02-28T09:32:31;3.80;76.70
43647;DHT22;56152;49.996;18.980;2023-02-28T09:37:34;3.80;75.80
43647;DHT22;56152;49.996;18.980;2023-02-28T09:42:39;3.90;75.10
43647;DHT22;56152;49.996;18.980;2023-02-28T09:47:42;3.70;75.50
43647;DHT22;56152;49.996;18.980;2023-02-28T09:52:48;3.70;76.20
43647;DHT22;56152;49.996;18.980;2023-02-28T09:57:53;4.10;75.70
43647;DHT22;56152;49.996;18.980;2023-02-28T10:03:29;4.20;74.90
43647;DHT22;56152;49.996;18.980;2023-02-28T10:08:36;4.40;74.60
43647;DHT22;56152;49.996;18.980;2023-02-28T10:13:53;4.70;74.20
43647;DHT22;56152;49.996;18.980;2023-02-28T10:19:03;4.80;73.70
43647;DHT22;56152;49.996;18.980;2023-02-28T10:24:29;4.80;73.10
43647;DHT22;56152;49.996;18.980;2023-02-28T10:29:35;5.00;73.90
43647;DHT22;56152;49.996;18.980;2023-02-28T10:34:37;5.00;71.70
43647;DHT22;56152;49.996;18.980;2023-02-28T10:39:41;5.20;72.80
43647;DHT22;56152;49.996;18.980;2023-02-28T10:44:46;5.20;70.90
43647;DHT22;56152;49.996;18.980;2023-02-28T10:49:51;5.10;71.70
43647;DHT22;56152;49.996;18.980;2023-02-28T10:55:14;5.00;71.40
43647;DHT22;56152;49.996;18.980;2023-02-28T11:00:21;5.00;72.10
43647;DHT22;56152;49.996;18.980;2023-02-28T11:05:26;4.90;72.00
43647;DHT22;56152;49.996;18.980;2023-02-28T11:10:30;4.70;71.50
43647;DHT22;56152;49.996;18.980;2023-02-28T11:15:36;4.80;71.60
43647;DHT22;56152;49.996;18.980;2023-02-28T11:20:41;4.90;72.30
43647;DHT22;56152;49.996;18.980;2023-02-28T11:25:48;5.00;71.20
43647;DHT22;56152;49.996;18.980;2023-02-28T11:31:03;5.30;72.40
43647;DHT22;56152;49.996;18.980;2023-02-28T11:36:11;5.30;71.40
43647;DHT22;56152;49.996;18.980;2023-02-28T11:41:47;5.10;71.00
43647;DHT22;56152;49.996;18.980;2023-02-28T11:46:57;4.90;71.10
43647;DHT22;56152;49.996;18.980;2023-02-28T11:52:10;5.00;71.60
43647;DHT22;56152;49.996;18.980;2023-02-28T11:57:32;5.30;71.00
43647;DHT22;56152;49.996;18.980;2023-02-28T12:02:55;5.60;70.40
43647;DHT22;56152;49.996;18.980;2023-02-28T12:08:06;5.60;70.40
43647;DHT22;56152;49.996;18.980;2023-02-28T12:13:19;6.10;69.60
43647;DHT22;56152;49.996;18.980;2023-02-28T12:24:03;6.10;69.10
43647;DHT22;56152;49.996;18.980;2023-02-28T12:29:14;6.10;69.00
43647;DHT22;56152;49.996;18.980;2023-02-28T12:34:25;6.30;69.50
43647;DHT22;56152;49.996;18.980;2023-02-28T12:39:33;6.80;69.50
43647;DHT22;56152;49.996;18.980;2023-02-28T12:44:43;7.20;67.70
43647;DHT22;56152;49.996;18.980;2023-02-28T12:49:51;6.90;66.10
43647;DHT22;56152;49.996;18.980;2023-02-28T12:55:00;6.50;66.60
43647;DHT22;56152;49.996;18.980;2023-02-28T13:00:10;6.50;68.10
43647;DHT22;56152;49.996;18.980;2023-02-28T13:05:19;6.30;68.10
43647;DHT22;56152;49.996;18.980;2023-02-28T13:10:41;6.10;63.80
43647;DHT22;56152;49.996;18.980;2023-02-28T13:16:03;5.70;68.10
43647;DHT22;56152;49.996;18.980;2023-02-28T13:21:08;5.80;69.40
43647;DHT22;56152;49.996;18.980;2023-02-28T13:26:11;6.00;69.10
43647;DHT22;56152;49.996;18.980;2023-02-28T13:31:14;6.00;68.00
43647;DHT22;56152;49.996;18.980;2023-02-28T13:36:28;5.90;68.00
43647;DHT22;56152;49.996;18.980;2023-02-28T13:41:46;5.40;67.00
43647;DHT22;56152;49.996;18.980;2023-02-28T13:47:16;5.00;68.30
43647;DHT22;56152;49.996;18.980;2023-02-28T13:52:26;5.00;69.30
43647;DHT22;56152;49.996;18.980;2023-02-28T13:57:40;5.10;68.70
43647;DHT22;56152;49.996;18.980;2023-02-28T14:03:05;5.30;69.10
43647;DHT22;56152;49.996;18.980;2023-02-28T14:08:13;5.50;69.10
43647;DHT22;56152;49.996;18.980;2023-02-28T14:13:37;5.80;68.90
43647;DHT22;56152;49.996;18.980;2023-02-28T14:18:51;5.90;62.70
43647;DHT22;56152;49.996;18.980;2023-02-28T14:30:19;5.90;69.20
43647;DHT22;56152;49.996;18.980;2023-02-28T14:35:40;5.90;69.20
43647;DHT22;56152;49.996;18.980;2023-02-28T14:40:51;6.10;69.30
43647;DHT22;56152;49.996;18.980;2023-02-28T14:45:58;6.10;68.50
43647;DHT22;56152;49.996;18.980;2023-02-28T14:51:01;5.90;67.70
43647;DHT22;56152;49.996;18.980;2023-02-28T14:56:16;5.50;69.10
43647;DHT22;56152;49.996;18.980;2023-02-28T15:01:22;5.60;68.80
43647;DHT22;56152;49.996;18.980;2023-02-28T15:06:25;5.40;69.00
43647;DHT22;56152;49.996;18.980;2023-02-28T15:11:27;5.20;68.70
43647;DHT22;56152;49.996;18.980;2023-02-28T15:16:33;5.00;69.00
43647;DHT22;56152;49.996;18.980;2023-02-28T15:21:40;4.80;69.30
43647;DHT22;56152;49.996;18.980;2023-02-28T15:26:48;4.50;69.90
43647;DHT22;56152;49.996;18.980;2023-02-28T15:32:00;4.40;70.50
43647;DHT22;56152;49.996;18.980;2023-02-28T15:37:06;4.50;70.00
43647;DHT22;56152;49.996;18.980;2023-02-28T15:42:12;4.50;69.60
43647;DHT22;56152;49.996;18.980;2023-02-28T15:47:22;4.40;68.90
43647;DHT22;56152;49.996;18.980;2023-02-28T15:52:28;4.00;68.90
43647;DHT22;56152;49.996;18.980;2023-02-28T15:57:32;3.70;69.80
43647;DHT22;56152;49.996;18.980;2023-02-28T16:02:36;3.30;70.20
43647;DHT22;56152;49.996;18.980;2023-02-28T16:07:40;3.10;70.90
43647;DHT22;56152;49.996;18.980;2023-02-28T16:12:42;2.80;71.40
43647;DHT22;56152;49.996;18.980;2023-02-28T16:17:48;2.50;71.80
43647;DHT22;56152;49.996;18.980;2023-02-28T16:22:51;2.30;72.50
43647;DHT22;56152;49.996;18.980;2023-02-28T16:27:54;2.00;72.90
43647;DHT22;56152;49.996;18.980;2023-02-28T16:33:03;1.80;73.20
43647;DHT22;56152;49.996;18.980;2023-02-28T16:38:06;1.60;73.50
43647;DHT22;56152;49.996;18.980;2023-02-28T16:43:22;1.50;73.70
43647;DHT22;56152;49.996;18.980;2023-02-28T16:48:29;1.30;74.00
43647;DHT22;56152;49.996;18.980;2023-02-28T16:53:32;1.20;74.20
43647;DHT22;56152;49.996;18.980;2023-02-28T16:58:34;1.00;74.30
43647;DHT22;56152;49.996;18.980;2023-02-28T17:03:39;0.90;74.40
43647;DHT22;56152;49.996;18.980;2023-02-28T17:08:42;0.80;74.60
43647;DHT22;56152;49.996;18.980;2023-02-28T17:13:55;0.70;74.80
43647;DHT22;56152;49.996;18.980;2023-02-28T17:19:01;0.50;75.10
43647;DHT22;56152;49.996;18.980;2023-02-28T17:24:06;0.40;75.40
43647;DHT22;56152;49.996;18.980;2023-02-28T17:29:14;0.30;75.70
43647;DHT22;56152;49.996;18.980;2023-02-28T17:34:21;0.20;75.90
43647;DHT22;56152;49.996;18.980;2023-02-28T17:39:24;0.10;76.10
43647;DHT22;56152;49.996;18.980;2023-02-28T17:44:28;0.00;76.30
43647;DHT22;56152;49.996;18.980;2023-02-28T17:49:34;-0.10;76.40
43647;DHT22;56152;49.996;18.980;2023-02-28T17:54:36;-0.20;76.60
43647;DHT22;56152;49.996;18.980;2023-02-28T17:59:39;-0.20;76.90
43647;DHT22;56152;49.996;18.980;2023-02-28T18:04:46;-0.30;77.00
43647;DHT22;56152;49.996;18.980;2023-02-28T18:09:51;-0.40;77.40
43647;DHT22;56152;49.996;18.980;2023-02-28T18:14:56;-0.60;77.70
43647;DHT22;56152;49.996;18.980;2023-02-28T18:20:05;-0.70;77.90
43647;DHT22;56152;49.996;18.980;2023-02-28T18:25:09;-0.70;78.10
43647;DHT22;56152;49.996;18.980;2023-02-28T18:30:14;-0.80;78.40
43647;DHT22;56152;49.996;18.980;2023-02-28T18:35:21;-0.90;78.60
43647;DHT22;56152;49.996;18.980;2023-02-28T18:40:36;-1.00;78.70
43647;DHT22;56152;49.996;18.980;2023-02-28T18:45:38;-1.10;79.00
43647;DHT22;56152;49.996;18.980;2023-02-28T18:50:42;-1.20;79.20
43647;DHT22;56152;49.996;18.980;2023-02-28T18:55:44;-1.20;80.20
43647;DHT22;56152;49.996;18.980;2023-02-28T19:00:51;-1.30;79.80
43647;DHT22;56152;49.996;18.980;2023-02-28T19:05:56;-1.40;80.00
43647;DHT22;56152;49.996;18.980;2023-02-28T19:11:05;-1.50;80.30
43647;DHT22;56152;49.996;18.980;2023-02-28T19:16:08;-1.50;80.50
43647;DHT22;56152;49.996;18.980;2023-02-28T19:21:15;-1.60;80.70
43647;DHT22;56152;49.996;18.980;2023-02-28T19:26:18;-1.70;81.00
43647;DHT22;56152;49.996;18.980;2023-02-28T19:31:23;-1.70;81.10
43647;DHT22;56152;49.996;18.980;2023-02-28T19:36:27;-1.70;81.50
43647;DHT22;56152;49.996;18.980;2023-02-28T19:41:31;-1.60;81.30
43647;DHT22;56152;49.996;18.980;2023-02-28T19:46:40;-1.60;81.30
43647;DHT22;56152;49.996;18.980;2023-02-28T19:51:46;-1.60;81.40
43647;DHT22;56152;49.996;18.980;2023-02-28T19:56:48;-1.50;81.30
43647;DHT22;56152;49.996;18.980;2023-02-28T20:01:52;-1.60;81.50
43647;DHT22;56152;49.996;18.980;2023-02-28T20:06:58;-1.60;81.90
43647;DHT22;56152;49.996;18.980;2023-02-28T20:11:59;-1.60;82.00
43647;DHT22;56152;49.996;18.980;2023-02-28T20:17:22;-1.60;82.10
43647;DHT22;56152;49.996;18.980;2023-02-28T20:22:41;-1.60;82.10
43647;DHT22;56152;49.996;18.980;2023-02-28T20:27:43;-1.70;82.30
43647;DHT22;56152;49.996;18.980;2023-02-28T20:32:45;-1.80;82.60
43647;DHT22;56152;49.996;18.980;2023-02-28T20:37:58;-1.90;82.90
43647;DHT22;56152;49.996;18.980;2023-02-28T20:43:01;-2.10;83.10
43647;DHT22;56152;49.996;18.980;2023-02-28T20:48:03;-2.20;83.50
43647;DHT22;56152;49.996;18.980;2023-02-28T20:53:10;-2.20;83.70
43647;DHT22;56152;49.996;18.980;2023-02-28T20:58:15;-2.30;83.90
43647;DHT22;56152;49.996;18.980;2023-02-28T21:03:22;-2.40;84.00
43647;DHT22;56152;49.996;18.980;2023-02-28T21:08:25;-2.30;84.40
43647;DHT22;56152;49.996;18.980;2023-02-28T21:13:28;-2.30;84.30
43647;DHT22;56152;49.996;18.980;2023-02-28T21:18:31;-2.40;84.30
43647;DHT22;56152;49.996;18.980;2023-02-28T21:23:36;-2.30;84.50
43647;DHT22;56152;49.996;18.980;2023-02-28T21:28:40;-2.40;84.50
43647;DHT22;56152;49.996;18.980;2023-02-28T21:33:44;-2.40;84.70
43647;DHT22;56152;49.996;18.980;2023-02-28T21:38:53;-2.50;84.70
43647;DHT22;56152;49.996;18.980;2023-02-28T21:43:56;-2.60;84.90
43647;DHT22;56152;49.996;18.980;2023-02-28T21:49:01;-2.70;85.10
43647;DHT22;56152;49.996;18.980;2023-02-28T21:54:06;-2.70;85.40
43647;DHT22;56152;49.996;18.980;2023-02-28T21:59:09;-2.80;85.50
43647;DHT22;56152;49.996;18.980;2023-02-28T22:04:15;-2.80;85.70
43647;DHT22;56152;49.996;18.980;2023-02-28T22:09:22;-2.90;85.80
43647;DHT22;56152;49.996;18.980;2023-02-28T22:14:25;-2.90;86.00
43647;DHT22;56152;49.996;18.980;2023-02-28T22:19:27;-3.00;86.00
43647;DHT22;56152;49.996;18.980;2023-02-28T22:24:32;-3.00;86.20
43647;DHT22;56152;49.996;18.980;2023-02-28T22:29:34;-3.00;86.20
43647;DHT22;56152;49.996;18.980;2023-02-28T22:34:37;-3.10;86.40
43647;DHT22;56152;49.996;18.980;2023-02-28T22:39:41;-3.10;86.60
43647;DHT22;56152;49.996;18.980;2023-02-28T22:44:43;-3.20;86.70
43647;DHT22;56152;49.996;18.980;2023-02-28T22:49:46;-3.20;86.80
43647;DHT22;56152;49.996;18.980;2023-02-28T22:54:51;-3.20;86.90
43647;DHT22;56152;49.996;18.980;2023-02-28T22:59:53;-3.20;86.90
43647;DHT22;56152;49.996;18.980;2023-02-28T23:04:57;-3.30;87.00
43647;DHT22;56152;49.996;18.980;2023-02-28T23:10:03;-3.30;87.10
43647;DHT22;56152;49.996;18.980;2023-02-28T23:15:09;-3.30;87.20
43647;DHT22;56152;49.996;18.980;2023-02-28T23:20:12;-3.30;87.20
43647;DHT22;56152;49.996;18.980;2023-02-28T23:25:18;-3.30;87.30
43647;DHT22;56152;49.996;18.980;2023-02-28T23:30:22;-3.30;87.40
43647;DHT22;56152;49.996;18.980;2023-02-28T23:35:24;-3.30;87.60
43647;DHT22;56152;49.996;18.980;2023-02-28T23:40:27;-3.40;87.60
43647;DHT22;56152;49.996;18.980;2023-02-28T23:45:29;-3.40;87.70
43647;DHT22;56152;49.996;18.980;2023-02-28T23:50:33;-3.30;87.90
43647;DHT22;56152;49.996;18.980;2023-02-28T23:55:44;-3.30;87.80
